createdAt,value
2022-10-13T00:02:12.578Z,95473
2022-10-13T00:05:37.782Z,95474
2022-10-13T00:09:02.920Z,95477
2022-10-13T00:12:28.076Z,95471
2022-10-13T00:15:53.254Z,95472
2022-10-13T00:19:18.414Z,95470
2022-10-13T00:22:43.585Z,95466
2022-10-13T00:26:08.766Z,95472
2022-10-13T00:29:33.966Z,95470
2022-10-13T00:32:59.078Z,95462
2022-10-13T00:36:24.253Z,95466
2022-10-13T00:39:49.418Z,95463
2022-10-13T00:43:14.593Z,95459
2022-10-13T00:46:39.799Z,95457
2022-10-13T00:50:04.953Z,95451
2022-10-13T00:53:30.133Z,95452
2022-10-13T00:56:55.301Z,95456
2022-10-13T01:00:20.484Z,95456
2022-10-13T01:03:45.675Z,95460
2022-10-13T01:07:10.816Z,95466
2022-10-13T01:10:35.966Z,95461
2022-10-13T01:14:01.116Z,95461
2022-10-13T01:17:26.270Z,95468
2022-10-13T01:20:51.440Z,95475
2022-10-13T01:24:16.585Z,95473
2022-10-13T01:27:41.759Z,95471
2022-10-13T01:31:06.922Z,95472
2022-10-13T01:34:32.094Z,95475
2022-10-13T01:37:57.295Z,95472
2022-10-13T01:41:22.431Z,95466
2022-10-13T01:44:47.616Z,95466
2022-10-13T01:48:12.762Z,95453
2022-10-13T01:51:37.960Z,95454
2022-10-13T01:55:03.161Z,95453
2022-10-13T01:58:28.312Z,95447
2022-10-13T02:01:53.463Z,95441
2022-10-13T02:05:18.615Z,95439
2022-10-13T02:08:43.777Z,95422
2022-10-13T02:12:08.974Z,95418
2022-10-13T02:15:34.136Z,95419
2022-10-13T02:18:59.308Z,95414
2022-10-13T02:22:24.479Z,95412
2022-10-13T02:25:49.651Z,95410
2022-10-13T02:29:14.852Z,95416
2022-10-13T02:32:39.974Z,95414
2022-10-13T02:36:05.156Z,95408
2022-10-13T02:39:30.294Z,95409
2022-10-13T02:42:55.438Z,95408
2022-10-13T02:46:20.623Z,95403
2022-10-13T02:49:45.737Z,95409
2022-10-13T02:53:10.921Z,95412
2022-10-13T02:56:36.081Z,95407
2022-10-13T03:00:01.259Z,95405
2022-10-13T03:03:26.444Z,95409
2022-10-13T03:06:51.578Z,95408
2022-10-13T03:10:16.762Z,95405
2022-10-13T03:13:41.947Z,95409
2022-10-13T03:17:11.107Z,95409
2022-10-13T03:20:32.312Z,95405
2022-10-13T03:23:57.442Z,95409
2022-10-13T03:27:22.625Z,95403
2022-10-13T03:30:47.809Z,95405
2022-10-13T03:34:12.985Z,95399
2022-10-13T03:37:38.389Z,95394
2022-10-13T03:41:03.365Z,95399
2022-10-13T03:44:28.536Z,95396
2022-10-13T03:47:53.699Z,95404
2022-10-13T03:51:18.862Z,95401
2022-10-13T03:54:44.050Z,95398
2022-10-13T03:58:09.180Z,95401
2022-10-13T04:01:34.368Z,95395
2022-10-13T04:04:59.491Z,95396
2022-10-13T04:08:24.656Z,95393
2022-10-13T04:11:49.838Z,95385
2022-10-13T04:15:14.968Z,95384
2022-10-13T04:18:44.423Z,95373
2022-10-13T04:22:05.271Z,95374
2022-10-13T04:25:30.452Z,95373
2022-10-13T04:28:55.696Z,95371
2022-10-13T04:32:21.009Z,95367
2022-10-13T04:35:45.985Z,95364
2022-10-13T04:39:11.155Z,95359
2022-10-13T04:42:36.352Z,95358
2022-10-13T04:46:01.532Z,95355
2022-10-13T04:49:26.664Z,95344
2022-10-13T04:52:51.845Z,95331
2022-10-13T04:56:17.043Z,95333
2022-10-13T04:59:42.217Z,95342
2022-10-13T05:03:07.459Z,95341
2022-10-13T05:06:32.671Z,95336
2022-10-13T05:09:57.885Z,95333
2022-10-13T05:13:23.060Z,95331
2022-10-13T05:16:48.213Z,95330
2022-10-13T05:20:13.401Z,95331
2022-10-13T05:23:38.549Z,95335
2022-10-13T05:27:03.762Z,95338
2022-10-13T05:30:28.904Z,95337
2022-10-13T05:33:54.067Z,95340
2022-10-13T05:37:19.250Z,95336
2022-10-13T05:40:44.381Z,95328
2022-10-13T05:44:09.581Z,95325
2022-10-13T05:47:34.798Z,95326
2022-10-13T05:50:59.993Z,95334
2022-10-13T05:54:25.190Z,95336
2022-10-13T05:57:50.333Z,95337
2022-10-13T06:01:15.493Z,95341
2022-10-13T06:04:40.709Z,95343
2022-10-13T06:08:05.880Z,95345
2022-10-13T06:11:31.107Z,95346
2022-10-13T06:14:56.281Z,95348
2022-10-13T06:18:21.495Z,95353
2022-10-13T06:21:46.691Z,95355
2022-10-13T06:25:11.911Z,95352
2022-10-13T06:28:37.163Z,95362
2022-10-13T06:32:02.324Z,95364
2022-10-13T06:35:27.552Z,95363
2022-10-13T06:38:52.775Z,95361
2022-10-13T06:42:18.299Z,95359
2022-10-13T06:45:43.287Z,95364
2022-10-13T06:49:08.504Z,95360
2022-10-13T06:52:33.712Z,95364
2022-10-13T06:55:58.935Z,95362
2022-10-13T06:59:24.132Z,95364
2022-10-13T07:02:49.391Z,95363
2022-10-13T07:06:14.566Z,95364
2022-10-13T07:09:39.779Z,95359
2022-10-13T07:13:04.978Z,95352
2022-10-13T07:16:30.200Z,95354
2022-10-13T07:19:57.154Z,95351
2022-10-13T07:23:20.622Z,95352
2022-10-13T07:26:45.840Z,95359
2022-10-13T07:30:11.033Z,95354
2022-10-13T07:33:36.217Z,95348
2022-10-13T07:37:01.449Z,95342
2022-10-13T07:40:26.648Z,95350
2022-10-13T07:43:51.856Z,95345
2022-10-13T07:47:17.217Z,95347
2022-10-13T07:50:42.301Z,95344
2022-10-13T07:54:07.534Z,95345
2022-10-13T07:57:32.721Z,95346
2022-10-13T08:00:57.947Z,95347
2022-10-13T08:04:23.187Z,95346
2022-10-13T08:07:48.407Z,95345
2022-10-13T08:11:15.959Z,95332
2022-10-13T08:14:38.940Z,95334
2022-10-13T08:18:04.058Z,95337
2022-10-13T08:21:58.535Z,95332
2022-10-13T08:24:54.445Z,95329
2022-10-13T08:28:19.832Z,95329
2022-10-13T08:31:45.263Z,95331
2022-10-13T08:35:10.114Z,95334
2022-10-13T08:38:35.315Z,95336
2022-10-13T08:42:00.502Z,95328
2022-10-13T08:45:40.714Z,95329
2022-10-13T08:48:50.937Z,95327
2022-10-13T08:52:16.234Z,95324
2022-10-13T08:55:41.321Z,95327
2022-10-13T08:59:06.507Z,95321
2022-10-13T09:02:31.759Z,95321
2022-10-13T09:05:56.932Z,95328
2022-10-13T09:09:22.160Z,95328
2022-10-13T09:12:47.401Z,95331
2022-10-13T09:16:12.587Z,95325
2022-10-13T09:19:37.816Z,95322
2022-10-13T09:23:03.021Z,95321
2022-10-13T09:26:28.254Z,95318
2022-10-13T09:29:53.467Z,95318
2022-10-13T09:33:18.693Z,95317
2022-10-13T09:36:43.971Z,95315
2022-10-13T09:40:09.092Z,95309
2022-10-13T09:43:34.290Z,95307
2022-10-13T09:46:59.464Z,95306
2022-10-13T09:50:24.672Z,95304
2022-10-13T09:53:49.993Z,95305
2022-10-13T09:57:15.061Z,95305
2022-10-13T10:00:40.295Z,95302
2022-10-13T10:04:05.547Z,95298
2022-10-13T10:07:30.736Z,95296
2022-10-13T10:10:55.996Z,95297
2022-10-13T10:14:21.168Z,95299
2022-10-13T10:17:46.394Z,95300
2022-10-13T10:21:11.609Z,95295
2022-10-13T10:24:36.853Z,95300
2022-10-13T10:28:02.103Z,95304
2022-10-13T10:31:27.287Z,95302
2022-10-13T10:34:52.479Z,95305
2022-10-13T10:38:17.679Z,95305
2022-10-13T10:41:42.894Z,95312
2022-10-13T10:45:08.150Z,95298
2022-10-13T10:48:33.338Z,95295
2022-10-13T10:51:58.521Z,95296
2022-10-13T10:55:23.724Z,95297
2022-10-13T10:58:48.965Z,95293
2022-10-13T11:02:14.170Z,95293
2022-10-13T11:05:39.308Z,95281
2022-10-13T11:09:04.518Z,95284
2022-10-13T11:12:29.690Z,95280
2022-10-13T11:15:54.856Z,95273
2022-10-13T11:19:20.035Z,95262
2022-10-13T11:22:45.203Z,95265
2022-10-13T11:26:10.432Z,95265
2022-10-13T11:29:35.622Z,95258
2022-10-13T11:33:00.787Z,95250
2022-10-13T11:36:26.009Z,95248
2022-10-13T11:39:51.170Z,95246
2022-10-13T11:43:16.501Z,95245
2022-10-13T11:46:41.748Z,95242
2022-10-13T11:50:06.942Z,95242
2022-10-13T11:53:32.399Z,95246
2022-10-13T11:56:57.521Z,95247
2022-10-13T12:00:22.687Z,95251
2022-10-13T12:03:47.866Z,95254
2022-10-13T12:07:13.100Z,95249
2022-10-13T12:10:38.330Z,95245
2022-10-13T12:14:03.501Z,95232
2022-10-13T12:17:28.793Z,95236
2022-10-13T12:20:54.054Z,95229
2022-10-13T12:24:19.241Z,95222
2022-10-13T12:27:44.447Z,95222
2022-10-13T12:31:09.625Z,95217
2022-10-13T12:34:34.820Z,95222
2022-10-13T12:38:00.043Z,95211
2022-10-13T12:41:25.275Z,95204
2022-10-13T12:44:50.513Z,95195
2022-10-13T12:48:15.744Z,95189
2022-10-13T12:51:40.970Z,95190
2022-10-13T12:55:06.142Z,95185
2022-10-13T12:58:31.325Z,95181
2022-10-13T13:01:56.570Z,95176
2022-10-13T13:05:21.740Z,95185
2022-10-13T13:08:46.976Z,95194
2022-10-13T13:12:13.145Z,95193
2022-10-13T13:15:38.350Z,95198
2022-10-13T13:19:03.556Z,95197
2022-10-13T13:22:28.807Z,95195
2022-10-13T13:25:53.948Z,95196
2022-10-13T13:29:19.181Z,95191
2022-10-13T13:32:44.434Z,95188
2022-10-13T13:36:09.687Z,95185
2022-10-13T13:39:34.861Z,95173
2022-10-13T13:43:00.039Z,95176
2022-10-13T13:46:25.245Z,95173
2022-10-13T13:49:50.481Z,95171
2022-10-13T13:53:15.683Z,95172
2022-10-13T13:56:40.852Z,95167
2022-10-13T14:00:06.060Z,95168
2022-10-13T14:03:31.249Z,95162
2022-10-13T14:06:56.475Z,95164
2022-10-13T14:10:21.704Z,95161
2022-10-13T14:13:46.901Z,95161
2022-10-13T14:17:12.117Z,95162
2022-10-13T14:20:37.315Z,95162
2022-10-13T14:24:02.541Z,95161
2022-10-13T14:27:27.801Z,95159
2022-10-13T15:06:14.690Z,95128
2022-10-13T15:09:52.608Z,95136
2022-10-13T15:13:05.109Z,95141
2022-10-13T15:16:30.385Z,95137
2022-10-13T15:19:55.628Z,95138
2022-10-13T15:23:21.984Z,95136
2022-10-13T15:26:47.165Z,95137
2022-10-13T15:30:12.341Z,95140
2022-10-13T15:33:37.522Z,95137
2022-10-13T15:37:02.707Z,95140
2022-10-13T15:40:27.907Z,95139
2022-10-13T15:43:53.125Z,95141
2022-10-13T15:47:18.322Z,95143
2022-10-13T15:50:43.485Z,95146
2022-10-13T15:54:08.659Z,95150
2022-10-13T15:57:33.916Z,95144
2022-10-13T16:00:59.154Z,95135
2022-10-13T16:04:24.299Z,95155
2022-10-13T16:07:49.516Z,95144
2022-10-13T16:11:14.750Z,95149
2022-10-13T16:14:39.980Z,95149
2022-10-13T16:18:08.057Z,95150
2022-10-13T16:21:33.223Z,95139
2022-10-13T16:24:58.372Z,95139
2022-10-13T16:28:23.793Z,95145
2022-10-13T16:31:48.937Z,95150
2022-10-13T16:35:14.075Z,95151
2022-10-13T16:38:39.287Z,95148
2022-10-13T16:42:04.577Z,95150
2022-10-13T16:45:48.238Z,95152
2022-10-13T16:48:56.530Z,95148
2022-10-13T16:52:21.670Z,95138
2022-10-13T16:55:46.829Z,95136
2022-10-13T16:59:11.983Z,95137
2022-10-13T17:02:37.221Z,95135
2022-10-13T17:06:02.381Z,95138
2022-10-13T17:09:27.510Z,95136
2022-10-13T17:12:52.704Z,95120
2022-10-13T17:16:17.861Z,95133
2022-10-13T17:19:43.005Z,95107
2022-10-13T17:23:08.219Z,95094
2022-10-13T17:26:33.434Z,95104
2022-10-13T17:29:58.569Z,95104
2022-10-13T17:33:23.726Z,95104
2022-10-13T17:36:48.893Z,95107
2022-10-13T17:40:14.138Z,95106
2022-10-13T17:43:39.412Z,95111
2022-10-13T17:47:04.590Z,95117
2022-10-13T17:50:29.724Z,95130
2022-10-13T17:53:54.941Z,95130
2022-10-13T17:57:20.315Z,95135
2022-10-13T18:01:12.732Z,95141
2022-10-13T18:04:10.438Z,95131
2022-10-13T18:07:35.632Z,95130
2022-10-13T18:11:07.869Z,95130
2022-10-13T18:14:25.990Z,95129
2022-10-13T18:17:51.115Z,95129
2022-10-13T18:21:16.366Z,95126
2022-10-13T18:24:41.533Z,95124
2022-10-13T18:28:06.682Z,95123
2022-10-13T18:31:31.859Z,95129
2022-10-13T18:34:57.047Z,95124
2022-10-13T18:38:22.235Z,95124
2022-10-13T18:41:47.411Z,95126
2022-10-13T18:45:12.610Z,95126
2022-10-13T18:48:37.795Z,95132
2022-10-13T18:52:02.943Z,95130
2022-10-13T18:55:28.142Z,95136
2022-10-13T18:58:57.085Z,95130
2022-10-13T19:02:18.489Z,95127
2022-10-13T19:05:43.653Z,95125
2022-10-13T19:09:08.780Z,95125
2022-10-13T19:12:33.939Z,95119
2022-10-13T19:15:59.103Z,95110
2022-10-13T19:19:24.262Z,95114
2022-10-13T19:22:49.465Z,95116
2022-10-13T19:26:15.185Z,95106
2022-10-13T19:29:39.760Z,95107
2022-10-13T19:33:04.924Z,95098
2022-10-13T19:36:30.144Z,95093
2022-10-13T19:39:55.426Z,95091
2022-10-13T19:43:20.602Z,95084
2022-10-13T19:46:45.756Z,95082
2022-10-13T19:50:11.040Z,95083
2022-10-13T19:53:36.265Z,95082
2022-10-13T19:57:01.433Z,95083
2022-10-13T20:00:26.605Z,95080
2022-10-13T20:03:51.732Z,95079
2022-10-13T20:07:16.892Z,95079
2022-10-13T20:10:42.044Z,95081
2022-10-13T20:14:07.217Z,95088
2022-10-13T20:17:32.338Z,95090
2022-10-13T20:20:57.489Z,95084
2022-10-13T20:24:22.973Z,95086
2022-10-13T20:27:48.166Z,95082
2022-10-13T20:31:13.351Z,95086
2022-10-13T20:34:38.490Z,95086
2022-10-13T20:38:03.636Z,95083
2022-10-13T20:41:28.794Z,95082
2022-10-13T20:44:53.961Z,95080
2022-10-13T20:48:19.152Z,95079
2022-10-13T20:51:44.325Z,95083
2022-10-13T20:55:09.465Z,95088
2022-10-13T20:58:34.633Z,95085
2022-10-13T21:01:59.862Z,95084
2022-10-13T21:05:25.040Z,95089
2022-10-13T21:08:50.263Z,95082
2022-10-13T21:12:15.410Z,95075
2022-10-13T21:15:40.552Z,95076
2022-10-13T21:19:05.715Z,95079
2022-10-13T21:22:30.994Z,95082
2022-10-13T21:25:56.122Z,95086
2022-10-13T21:29:21.276Z,95086
2022-10-13T21:32:46.441Z,95081
2022-10-13T21:36:11.608Z,95081
2022-10-13T21:39:36.838Z,95073
2022-10-13T21:43:01.961Z,95074
2022-10-13T21:46:27.154Z,95076
2022-10-13T21:49:52.314Z,95073
2022-10-13T21:53:17.502Z,95075
2022-10-13T21:56:42.726Z,95066
2022-10-13T22:00:07.851Z,95075
2022-10-13T22:03:33.015Z,95079
2022-10-13T22:06:58.173Z,95078
2022-10-13T22:10:23.373Z,95083
2022-10-13T22:13:48.603Z,95086
2022-10-13T22:17:13.739Z,95079
2022-10-13T22:20:38.893Z,95078
2022-10-13T22:24:04.096Z,95072
2022-10-13T22:27:29.243Z,95072
2022-10-13T22:30:54.456Z,95067
2022-10-13T22:34:19.600Z,95066
2022-10-13T22:37:44.787Z,95066
2022-10-13T22:41:09.950Z,95068
2022-10-13T22:44:35.108Z,95064
2022-10-13T22:48:00.302Z,95062
2022-10-13T22:51:25.485Z,95065
2022-10-13T22:54:50.654Z,95058
2022-10-13T22:58:15.799Z,95056
2022-10-13T23:01:40.951Z,95054
2022-10-13T23:05:06.172Z,95047
2022-10-13T23:08:31.396Z,95041
2022-10-13T23:11:59.768Z,95044
2022-10-13T23:15:21.757Z,95041
2022-10-13T23:18:46.910Z,95037
2022-10-13T23:22:12.140Z,95032
2022-10-13T23:25:37.292Z,95029
2022-10-13T23:29:02.458Z,95033
2022-10-13T23:32:27.605Z,95032
2022-10-13T23:35:52.740Z,95031
2022-10-13T23:39:17.961Z,95034
2022-10-13T23:42:43.095Z,95043
2022-10-13T23:46:08.257Z,95041
2022-10-13T23:49:33.406Z,95044
2022-10-13T23:52:58.623Z,95043
2022-10-13T23:56:23.846Z,95043
2022-10-13T23:59:49.030Z,95038
